Time;durP1;ratioP1;P1;durP2;ratioP2;P2;SDS_P1;SDS_P2;PMS_P1;PMS_P2;Temp;Humidity;BMP_temperature;BMP_pressure;BME280_temperature;BME280_humidity;BME280_pressure;Samples;Min_cycle;Max_cycle;Signal;HPM_P1;HPM_P2
2022/11/08 00:01:33;;;;;;;9.65;4.00;;;;;;;;;;5059063;28;20419;-81
2022/11/08 00:04:01;;;;;;;15.50;4.07;;;;;;;;;;5061874;28;20429;-81
2022/11/08 00:14:41;;;;;;;10.68;4.00;;;;;;;;;;5057210;28;20481;-80
2022/11/08 00:17:08;;;;;;;11.50;4.43;;;;;;;;;;5059400;28;20429;-79
2022/11/08 00:19:34;;;;;;;9.90;3.90;;;;;;;;;;5061212;28;20424;-79
2022/11/08 00:22:01;;;;;;;8.75;3.90;;;;;;;;;;5060763;28;20432;-79
2022/11/08 00:24:27;;;;;;;10.45;4.50;;;;;;;;;;5060676;28;20428;-80
2022/11/08 00:26:54;;;;;;;10.35;3.83;;;;;;;;;;5064813;28;20429;-82
2022/11/08 00:29:22;;;;;;;7.03;3.80;;;;;;;;;;5057441;28;20436;-81
2022/11/08 00:31:49;;;;;;;10.07;4.28;;;;;;;;;;5061958;28;20806;-81
2022/11/08 00:34:15;;;;;;;11.32;4.03;;;;;;;;;;5061481;28;20423;-82
2022/11/08 00:36:41;;;;;;;12.43;4.68;;;;;;;;;;5058575;28;20432;-81
2022/11/08 00:39:09;;;;;;;9.50;4.30;;;;;;;;;;5064799;28;20786;-81
2022/11/08 00:41:35;;;;;;;10.18;4.55;;;;;;;;;;5063753;28;20475;-81
2022/11/08 00:44:02;;;;;;;6.65;3.83;;;;;;;;;;5060968;28;20433;-81
2022/11/08 00:46:30;;;;;;;8.75;4.13;;;;;;;;;;5064282;28;20419;-82
2022/11/08 00:48:57;;;;;;;6.60;3.70;;;;;;;;;;5068841;28;20419;-81
2022/11/08 00:51:23;;;;;;;12.73;4.38;;;;;;;;;;5062732;28;20457;-81
2022/11/08 00:53:50;;;;;;;10.17;3.90;;;;;;;;;;5065128;28;20414;-81
2022/11/08 00:56:16;;;;;;;9.15;4.13;;;;;;;;;;5061649;28;20420;-81
2022/11/08 00:58:43;;;;;;;9.48;4.25;;;;;;;;;;5063160;28;20451;-81
2022/11/08 01:01:10;;;;;;;8.85;3.80;;;;;;;;;;5064426;28;20469;-81
2022/11/08 01:03:38;;;;;;;9.00;4.07;;;;;;;;;;5063425;28;20420;-81
2022/11/08 01:06:05;;;;;;;8.20;3.70;;;;;;;;;;5063027;28;20413;-80
2022/11/08 01:08:31;;;;;;;11.00;4.20;;;;;;;;;;5064336;28;20996;-80
2022/11/08 01:11:01;;;;;;;12.70;4.70;;;;;;;;;;5063499;28;20417;-81
2022/11/08 01:13:27;;;;;;;11.02;4.40;;;;;;;;;;5064915;28;20524;-81
2022/11/08 01:15:53;;;;;;;10.48;4.10;;;;;;;;;;5060638;28;20976;-81
2022/11/08 01:18:20;;;;;;;7.03;3.53;;;;;;;;;;5067494;28;20939;-81
2022/11/08 01:20:48;;;;;;;10.63;3.63;;;;;;;;;;5064323;28;20415;-81
2022/11/08 01:23:16;;;;;;;5.18;3.30;;;;;;;;;;5061613;28;20427;-81
2022/11/08 01:25:43;;;;;;;7.32;4.20;;;;;;;;;;5058777;28;20429;-81
2022/11/08 01:28:10;;;;;;;10.05;3.97;;;;;;;;;;5063705;28;20421;-81
2022/11/08 01:30:37;;;;;;;10.40;3.70;;;;;;;;;;5059032;28;20433;-81
2022/11/08 01:33:03;;;;;;;11.50;3.70;;;;;;;;;;5064514;28;20424;-81
2022/11/08 01:35:30;;;;;;;8.50;3.67;;;;;;;;;;5062685;28;20904;-81
2022/11/08 01:37:57;;;;;;;7.72;4.30;;;;;;;;;;5062474;28;20433;-81
2022/11/08 01:40:24;;;;;;;10.43;4.00;;;;;;;;;;5062304;28;20918;-79
2022/11/08 01:42:51;;;;;;;12.15;4.70;;;;;;;;;;5062718;28;20445;-81
2022/11/08 01:45:32;;;;;;;10.45;3.60;;;;;;;;;;5059618;28;20531;-79
2022/11/08 01:47:58;;;;;;;9.55;3.80;;;;;;;;;;5059648;28;20417;-81
2022/11/08 01:50:25;;;;;;;15.75;3.97;;;;;;;;;;5061207;28;20417;-81
2022/11/08 01:52:53;;;;;;;10.80;3.80;;;;;;;;;;5062986;28;20408;-81
2022/11/08 01:55:22;;;;;;;9.57;4.20;;;;;;;;;;5060494;28;20435;-81
2022/11/08 01:57:50;;;;;;;9.23;4.00;;;;;;;;;;5060941;28;20940;-81
2022/11/08 02:00:19;;;;;;;13.07;4.40;;;;;;;;;;5062842;28;20412;-81
2022/11/08 02:02:47;;;;;;;11.02;4.28;;;;;;;;;;5062706;28;20416;-81
2022/11/08 02:05:27;;;;;;;11.80;3.95;;;;;;;;;;5064034;28;20432;-81
2022/11/08 02:08:00;;;;;;;9.40;3.65;;;;;;;;;;5065366;28;20425;-81
2022/11/08 02:10:29;;;;;;;10.85;4.22;;;;;;;;;;5061835;28;20425;-82
2022/11/08 02:12:56;;;;;;;9.95;3.95;;;;;;;;;;5060971;28;20915;-81
2022/11/08 02:15:24;;;;;;;8.80;3.63;;;;;;;;;;5060467;28;20417;-81
2022/11/08 02:17:51;;;;;;;8.50;3.42;;;;;;;;;;5060804;28;20433;-81
2022/11/08 02:20:18;;;;;;;12.32;4.40;;;;;;;;;;5058420;28;20427;-81
2022/11/08 02:22:47;;;;;;;12.63;4.07;;;;;;;;;;5062773;28;20423;-81
2022/11/08 02:25:15;;;;;;;8.97;3.90;;;;;;;;;;5060268;28;20426;-79
2022/11/08 02:27:41;;;;;;;8.57;3.20;;;;;;;;;;5060092;28;20495;-81
2022/11/08 02:30:08;;;;;;;10.80;4.05;;;;;;;;;;5058297;28;20444;-81
2022/11/08 02:32:46;;;;;;;8.73;3.58;;;;;;;;;;5060646;28;20424;-80
2022/11/08 02:35:14;;;;;;;7.55;3.50;;;;;;;;;;5060397;28;20440;-81
2022/11/08 02:37:41;;;;;;;13.32;4.05;;;;;;;;;;5057120;28;20422;-81
2022/11/08 02:40:07;;;;;;;9.50;4.07;;;;;;;;;;5060871;28;20434;-81
2022/11/08 02:42:37;;;;;;;12.82;4.30;;;;;;;;;;5056952;28;20444;-81
2022/11/08 02:45:03;;;;;;;8.63;3.53;;;;;;;;;;5061483;28;20430;-79
2022/11/08 02:47:30;;;;;;;15.32;4.18;;;;;;;;;;5059467;28;20421;-79
2022/11/08 02:49:57;;;;;;;13.45;4.38;;;;;;;;;;5060081;28;20436;-80
2022/11/08 02:52:23;;;;;;;12.18;4.50;;;;;;;;;;5058233;28;20431;-80
2022/11/08 02:54:49;;;;;;;8.73;3.67;;;;;;;;;;5058403;28;20425;-79
2022/11/08 02:57:16;;;;;;;10.52;4.15;;;;;;;;;;5056779;28;20425;-80
2022/11/08 02:59:44;;;;;;;10.73;4.17;;;;;;;;;;5062677;28;20445;-81
2022/11/08 03:02:10;;;;;;;11.67;4.23;;;;;;;;;;5060271;28;20427;-81
2022/11/08 03:04:36;;;;;;;8.63;4.20;;;;;;;;;;5062125;28;20421;-79
2022/11/08 03:07:03;;;;;;;8.27;3.97;;;;;;;;;;5062408;28;20428;-81
2022/11/08 03:09:29;;;;;;;10.80;4.20;;;;;;;;;;5060525;28;20418;-80
2022/11/08 03:11:55;;;;;;;8.88;4.18;;;;;;;;;;5056338;28;20437;-80
2022/11/08 03:14:22;;;;;;;10.48;4.20;;;;;;;;;;5061617;28;20414;-80
2022/11/08 03:16:50;;;;;;;11.10;4.20;;;;;;;;;;5060315;28;20419;-80
2022/11/08 03:19:17;;;;;;;13.37;4.20;;;;;;;;;;5061190;28;20420;-80
2022/11/08 03:21:43;;;;;;;7.72;4.30;;;;;;;;;;5055479;28;20420;-79
2022/11/08 03:24:10;;;;;;;11.20;4.45;;;;;;;;;;5063327;28;20424;-80
2022/11/08 03:26:37;;;;;;;6.75;3.60;;;;;;;;;;5061255;28;20412;-80
2022/11/08 03:29:04;;;;;;;9.10;3.50;;;;;;;;;;5056999;28;20435;-80
2022/11/08 03:31:30;;;;;;;13.05;4.57;;;;;;;;;;5061772;28;20421;-80
2022/11/08 03:33:58;;;;;;;8.27;4.00;;;;;;;;;;5062095;28;20432;-80
2022/11/08 03:36:25;;;;;;;10.38;4.00;;;;;;;;;;5059085;28;20812;-80
2022/11/08 03:38:51;;;;;;;9.02;4.28;;;;;;;;;;5057607;28;21007;-80
2022/11/08 03:41:18;;;;;;;7.35;3.40;;;;;;;;;;5054730;28;20424;-80
2022/11/08 03:43:44;;;;;;;10.52;4.32;;;;;;;;;;5055742;28;20429;-80
2022/11/08 03:46:12;;;;;;;10.93;4.00;;;;;;;;;;5062855;28;20410;-80
2022/11/08 03:48:38;;;;;;;8.88;3.72;;;;;;;;;;5062364;28;20431;-80
2022/11/08 03:51:06;;;;;;;11.02;4.10;;;;;;;;;;5056482;28;20411;-80
2022/11/08 03:53:32;;;;;;;12.52;4.53;;;;;;;;;;5053940;28;20941;-80
2022/11/08 03:56:00;;;;;;;7.65;4.00;;;;;;;;;;5060275;28;20415;-80
2022/11/08 03:58:26;;;;;;;8.38;3.65;;;;;;;;;;5055197;28;20440;-80
2022/11/08 04:00:53;;;;;;;8.70;4.30;;;;;;;;;;5060533;28;20426;-79
2022/11/08 04:03:19;;;;;;;11.57;3.60;;;;;;;;;;5056190;28;20472;-79
2022/11/08 04:05:47;;;;;;;8.32;3.70;;;;;;;;;;5061636;28;20428;-79
2022/11/08 04:08:15;;;;;;;8.73;3.90;;;;;;;;;;5056766;28;20926;-79
2022/11/08 04:10:41;;;;;;;8.95;4.00;;;;;;;;;;5063289;28;20432;-81
2022/11/08 04:15:54;;;;;;;11.57;3.80;;;;;;;;;;5059996;28;20485;-81
2022/11/08 04:21:20;;;;;;;14.80;5.40;;;;;;;;;;5055025;28;20430;-81
2022/11/08 04:23:48;;;;;;;16.45;4.85;;;;;;;;;;5056259;28;20431;-81
2022/11/08 04:26:15;;;;;;;10.57;4.00;;;;;;;;;;5058047;28;20416;-81
2022/11/08 04:28:42;;;;;;;8.45;4.30;;;;;;;;;;5060676;28;20429;-81
2022/11/08 04:31:09;;;;;;;12.87;3.70;;;;;;;;;;5055251;28;20420;-81
2022/11/08 04:33:36;;;;;;;11.05;4.30;;;;;;;;;;5060089;28;20440;-81
2022/11/08 04:36:04;;;;;;;10.80;4.25;;;;;;;;;;5058431;28;20426;-81
2022/11/08 04:38:30;;;;;;;9.82;3.75;;;;;;;;;;5058671;28;20910;-81
2022/11/08 04:41:02;;;;;;;8.88;4.20;;;;;;;;;;5057663;28;20410;-81
2022/11/08 04:43:29;;;;;;;8.70;3.97;;;;;;;;;;5056611;28;20432;-81
2022/11/08 04:45:58;;;;;;;8.57;3.95;;;;;;;;;;5062698;28;20417;-80
2022/11/08 04:48:25;;;;;;;10.00;4.03;;;;;;;;;;5062452;28;20430;-81
2022/11/08 04:50:53;;;;;;;7.88;4.20;;;;;;;;;;5056964;28;20430;-81
2022/11/08 04:53:20;;;;;;;9.93;4.10;;;;;;;;;;5063737;28;20428;-80
2022/11/08 04:55:47;;;;;;;10.10;4.20;;;;;;;;;;5058380;28;20418;-81
2022/11/08 04:58:15;;;;;;;10.45;4.28;;;;;;;;;;5055476;28;20806;-81
2022/11/08 05:00:41;;;;;;;9.85;4.20;;;;;;;;;;5058931;28;20423;-81
2022/11/08 05:03:07;;;;;;;8.07;4.20;;;;;;;;;;5062287;28;20421;-81
2022/11/08 05:05:35;;;;;;;11.60;4.35;;;;;;;;;;5061446;28;20429;-81
2022/11/08 05:08:02;;;;;;;12.00;4.15;;;;;;;;;;5062150;28;20910;-81
2022/11/08 05:10:28;;;;;;;11.40;4.37;;;;;;;;;;5062158;28;20436;-81
2022/11/08 05:12:56;;;;;;;9.68;3.97;;;;;;;;;;5062778;28;20434;-81
2022/11/08 05:15:24;;;;;;;8.18;3.60;;;;;;;;;;5062701;28;20436;-80
2022/11/08 05:17:50;;;;;;;11.57;4.57;;;;;;;;;;5063070;28;20425;-81
2022/11/08 05:25:46;;;;;;;10.70;3.93;;;;;;;;;;5058984;28;21041;-81
2022/11/08 05:28:12;;;;;;;12.93;4.82;;;;;;;;;;5062716;28;20793;-81
2022/11/08 05:30:40;;;;;;;11.07;4.22;;;;;;;;;;5059464;28;20422;-81
2022/11/08 05:33:06;;;;;;;13.00;4.05;;;;;;;;;;5060300;28;20909;-81
2022/11/08 05:35:34;;;;;;;8.02;4.60;;;;;;;;;;5060088;28;20410;-80
2022/11/08 05:38:00;;;;;;;11.50;3.83;;;;;;;;;;5062707;28;20434;-81
2022/11/08 05:40:27;;;;;;;10.20;4.10;;;;;;;;;;5060986;28;20414;-81
2022/11/08 05:42:54;;;;;;;7.85;4.47;;;;;;;;;;5058454;28;20827;-81
2022/11/08 05:45:20;;;;;;;12.63;4.53;;;;;;;;;;5060846;28;21009;-81
2022/11/08 05:47:50;;;;;;;13.05;4.80;;;;;;;;;;5068496;28;20423;-81
2022/11/08 05:50:17;;;;;;;9.67;4.20;;;;;;;;;;5060853;28;20436;-81
2022/11/08 05:52:44;;;;;;;11.77;4.28;;;;;;;;;;5065062;28;20427;-81
2022/11/08 05:55:10;;;;;;;9.57;4.75;;;;;;;;;;5067072;28;20429;-81
2022/11/08 05:57:36;;;;;;;8.82;4.50;;;;;;;;;;5064596;28;20423;-81
2022/11/08 06:00:04;;;;;;;8.93;3.90;;;;;;;;;;5061390;28;20436;-81
2022/11/08 06:02:34;;;;;;;10.32;4.80;;;;;;;;;;5058046;28;20427;-80
2022/11/08 06:05:01;;;;;;;13.57;4.50;;;;;;;;;;5064656;28;20427;-80
2022/11/08 06:07:28;;;;;;;6.00;4.05;;;;;;;;;;5064704;28;20843;-81
2022/11/08 06:09:54;;;;;;;8.43;4.00;;;;;;;;;;5064021;28;20514;-81
2022/11/08 06:12:21;;;;;;;13.82;4.82;;;;;;;;;;5065004;28;20411;-80
2022/11/08 06:14:47;;;;;;;10.82;5.20;;;;;;;;;;5061217;28;20423;-80
2022/11/08 06:17:13;;;;;;;8.55;5.03;;;;;;;;;;5064023;28;20411;-80
2022/11/08 06:19:40;;;;;;;13.98;5.38;;;;;;;;;;5059983;28;20435;-80
2022/11/08 06:22:08;;;;;;;10.73;4.60;;;;;;;;;;5063860;28;20424;-80
2022/11/08 06:24:35;;;;;;;9.50;4.63;;;;;;;;;;5057302;28;20435;-81
2022/11/08 06:27:01;;;;;;;7.70;4.40;;;;;;;;;;5065860;28;20436;-81
2022/11/08 06:29:27;;;;;;;9.10;4.30;;;;;;;;;;5061922;28;20435;-81
2022/11/08 06:31:57;;;;;;;9.57;4.45;;;;;;;;;;5063713;28;20419;-81
2022/11/08 06:34:23;;;;;;;9.02;3.92;;;;;;;;;;5062094;28;20410;-81
2022/11/08 06:36:51;;;;;;;11.50;4.00;;;;;;;;;;5062467;28;20440;-81
2022/11/08 06:39:19;;;;;;;8.23;3.88;;;;;;;;;;5066568;28;20434;-81
2022/11/08 06:41:46;;;;;;;9.00;4.60;;;;;;;;;;5060859;28;20421;-81
2022/11/08 06:44:12;;;;;;;9.27;4.22;;;;;;;;;;5059042;28;20460;-81
2022/11/08 06:46:39;;;;;;;8.80;4.30;;;;;;;;;;5067150;28;20993;-81
2022/11/08 06:49:05;;;;;;;10.50;3.80;;;;;;;;;;5058250;28;20445;-81
2022/11/08 06:51:31;;;;;;;7.80;4.00;;;;;;;;;;5063599;28;20420;-81
2022/11/08 06:53:59;;;;;;;5.85;3.72;;;;;;;;;;5061865;28;20427;-82
2022/11/08 06:56:26;;;;;;;7.83;4.00;;;;;;;;;;5064360;28;20939;-81
2022/11/08 06:58:53;;;;;;;7.80;4.00;;;;;;;;;;5062105;28;20495;-81
2022/11/08 07:01:19;;;;;;;10.73;4.03;;;;;;;;;;5063755;28;20774;-81
2022/11/08 07:03:45;;;;;;;7.57;3.73;;;;;;;;;;5063096;28;20404;-81
2022/11/08 07:06:12;;;;;;;11.05;4.05;;;;;;;;;;5062476;28;20425;-81
2022/11/08 07:08:39;;;;;;;10.23;4.15;;;;;;;;;;5061707;28;20813;-81
2022/11/08 07:11:06;;;;;;;9.55;4.10;;;;;;;;;;5065751;28;20409;-81
2022/11/08 07:13:34;;;;;;;7.97;4.40;;;;;;;;;;5064335;28;20421;-81
2022/11/08 07:16:01;;;;;;;10.30;3.78;;;;;;;;;;5060185;28;20432;-82
2022/11/08 07:18:27;;;;;;;9.35;3.83;;;;;;;;;;5066476;28;20419;-81
2022/11/08 07:20:57;;;;;;;7.85;3.97;;;;;;;;;;5063327;28;20427;-81
2022/11/08 07:23:24;;;;;;;12.38;3.60;;;;;;;;;;5064596;28;20423;-81
2022/11/08 07:25:51;;;;;;;8.10;3.78;;;;;;;;;;5058832;28;20409;-81
2022/11/08 07:28:19;;;;;;;6.50;3.72;;;;;;;;;;5060732;28;21279;-82
2022/11/08 07:30:47;;;;;;;9.67;3.63;;;;;;;;;;5060748;28;20432;-81
2022/11/08 07:33:14;;;;;;;8.43;3.80;;;;;;;;;;5061679;28;20416;-81
2022/11/08 07:35:40;;;;;;;7.80;3.90;;;;;;;;;;5061689;28;20421;-81
2022/11/08 07:38:07;;;;;;;10.75;4.43;;;;;;;;;;5065303;28;20430;-81
2022/11/08 07:40:33;;;;;;;6.65;4.10;;;;;;;;;;5061044;28;20429;-81
2022/11/08 07:43:00;;;;;;;14.05;4.82;;;;;;;;;;5062646;28;20456;-81
2022/11/08 07:45:26;;;;;;;6.65;4.13;;;;;;;;;;5062203;28;20425;-81
2022/11/08 07:48:01;;;;;;;5.57;3.70;;;;;;;;;;5065451;28;20411;-81
2022/11/08 07:50:28;;;;;;;8.52;3.60;;;;;;;;;;5065134;28;20764;-80
2022/11/08 07:52:54;;;;;;;9.38;3.78;;;;;;;;;;5063609;28;20420;-81
2022/11/08 07:55:21;;;;;;;6.90;3.50;;;;;;;;;;5067476;28;20437;-81
2022/11/08 07:57:47;;;;;;;6.80;4.00;;;;;;;;;;5064198;28;20424;-81
2022/11/08 08:00:14;;;;;;;6.30;3.80;;;;;;;;;;5060544;28;20420;-81
2022/11/08 08:02:41;;;;;;;11.20;4.32;;;;;;;;;;5060455;28;20417;-81
2022/11/08 08:05:09;;;;;;;7.82;3.90;;;;;;;;;;5065194;28;20438;-81
2022/11/08 08:07:37;;;;;;;6.57;3.60;;;;;;;;;;5064594;28;20422;-81
2022/11/08 08:10:04;;;;;;;9.68;3.45;;;;;;;;;;5064302;28;20413;-81
2022/11/08 08:12:31;;;;;;;7.20;3.60;;;;;;;;;;5062333;28;20412;-81
2022/11/08 08:14:57;;;;;;;9.20;3.67;;;;;;;;;;5064598;28;20428;-81
2022/11/08 08:17:24;;;;;;;10.10;3.50;;;;;;;;;;5062903;28;20513;-81
2022/11/08 08:19:52;;;;;;;13.52;3.40;;;;;;;;;;5063055;28;20495;-81
2022/11/08 08:22:20;;;;;;;8.05;3.70;;;;;;;;;;5066841;28;20872;-81
2022/11/08 08:24:46;;;;;;;7.20;3.50;;;;;;;;;;5065621;28;20413;-81
2022/11/08 08:27:12;;;;;;;7.78;3.38;;;;;;;;;;5064328;28;21033;-81
2022/11/08 08:29:39;;;;;;;8.10;3.05;;;;;;;;;;5059952;28;20415;-81
2022/11/08 08:32:05;;;;;;;8.65;2.65;;;;;;;;;;5065499;28;20490;-81
2022/11/08 08:34:31;;;;;;;10.23;3.28;;;;;;;;;;5065085;28;20407;-81
2022/11/08 08:36:58;;;;;;;8.02;3.38;;;;;;;;;;5065191;28;20852;-81
2022/11/08 08:39:26;;;;;;;7.82;2.88;;;;;;;;;;5062911;28;20439;-81
2022/11/08 08:41:52;;;;;;;7.65;2.70;;;;;;;;;;5066035;28;20968;-81
2022/11/08 08:44:18;;;;;;;7.85;3.10;;;;;;;;;;5071242;28;20488;-81
2022/11/08 08:46:45;;;;;;;7.97;2.92;;;;;;;;;;5062469;28;20425;-81
2022/11/08 08:49:11;;;;;;;5.23;2.97;;;;;;;;;;5064743;28;20425;-81
2022/11/08 08:51:38;;;;;;;4.65;3.13;;;;;;;;;;5068319;28;20431;-81
2022/11/08 08:54:04;;;;;;;7.13;3.40;;;;;;;;;;5066617;28;20432;-81
2022/11/08 08:56:32;;;;;;;6.38;2.80;;;;;;;;;;5068130;28;20425;-81
2022/11/08 08:58:58;;;;;;;4.75;2.88;;;;;;;;;;5066907;28;20496;-81
2022/11/08 09:01:25;;;;;;;6.37;3.00;;;;;;;;;;5066089;28;20420;-81
2022/11/08 09:03:52;;;;;;;6.80;3.15;;;;;;;;;;5066294;28;20425;-81
2022/11/08 09:06:18;;;;;;;8.07;3.00;;;;;;;;;;5067045;28;20413;-81
2022/11/08 09:08:45;;;;;;;6.63;2.93;;;;;;;;;;5066491;28;20434;-81
2022/11/08 09:11:11;;;;;;;5.22;2.80;;;;;;;;;;5067020;28;20437;-81
2022/11/08 09:13:39;;;;;;;6.55;2.80;;;;;;;;;;5067169;28;20966;-83
2022/11/08 09:16:06;;;;;;;5.85;2.65;;;;;;;;;;5065356;28;21091;-81
2022/11/08 09:18:33;;;;;;;5.10;2.97;;;;;;;;;;5067996;28;20422;-81
2022/11/08 09:21:02;;;;;;;6.20;3.15;;;;;;;;;;5063003;28;20428;-81
2022/11/08 09:23:29;;;;;;;6.83;3.10;;;;;;;;;;5064589;28;20429;-81
2022/11/08 09:25:56;;;;;;;7.55;2.95;;;;;;;;;;5066054;28;20421;-81
2022/11/08 09:28:23;;;;;;;3.87;2.30;;;;;;;;;;5066456;28;20914;-81
2022/11/08 09:30:51;;;;;;;8.23;3.20;;;;;;;;;;5067085;28;20432;-81
2022/11/08 09:33:17;;;;;;;8.13;3.60;;;;;;;;;;5064204;28;20418;-81
2022/11/08 09:35:45;;;;;;;6.00;2.77;;;;;;;;;;5063350;28;20417;-81
2022/11/08 09:38:11;;;;;;;6.90;2.80;;;;;;;;;;5067139;28;20425;-81
2022/11/08 09:40:39;;;;;;;5.90;2.50;;;;;;;;;;5066334;28;20418;-81
2022/11/08 09:43:13;;;;;;;6.83;2.97;;;;;;;;;;5064709;28;20427;-81
2022/11/08 09:45:41;;;;;;;6.43;3.00;;;;;;;;;;5066832;28;20423;-81
2022/11/08 09:48:16;;;;;;;6.45;2.45;;;;;;;;;;5066229;28;20432;-81
2022/11/08 09:50:44;;;;;;;8.45;2.80;;;;;;;;;;5065841;28;20429;-81
2022/11/08 09:53:14;;;;;;;3.35;2.45;;;;;;;;;;5067403;28;20429;-81
2022/11/08 09:55:44;;;;;;;5.47;2.58;;;;;;;;;;5066509;28;20422;-81
2022/11/08 09:58:18;;;;;;;4.95;2.70;;;;;;;;;;5064007;28;20422;-81
2022/11/08 10:00:49;;;;;;;4.93;2.85;;;;;;;;;;5066018;28;20417;-81
2022/11/08 10:03:17;;;;;;;3.47;2.40;;;;;;;;;;5068214;28;20417;-81
2022/11/08 10:05:48;;;;;;;4.13;2.30;;;;;;;;;;5066363;28;20444;-80
2022/11/08 10:08:21;;;;;;;2.45;2.25;;;;;;;;;;5067055;28;20418;-81
2022/11/08 10:11:12;;;;;;;2.88;2.08;;;;;;;;;;5066035;28;20531;-81
2022/11/08 10:13:45;;;;;;;5.85;2.28;;;;;;;;;;5064810;28;20409;-81
2022/11/08 10:16:16;;;;;;;5.03;2.25;;;;;;;;;;5060602;28;20421;-81
2022/11/08 10:18:56;;;;;;;5.78;2.38;;;;;;;;;;5062497;28;20914;-81
2022/11/08 10:21:31;;;;;;;4.68;2.30;;;;;;;;;;5062319;28;20441;-82
2022/11/08 10:24:02;;;;;;;5.28;2.13;;;;;;;;;;5065502;28;20417;-82
2022/11/08 10:26:34;;;;;;;5.75;2.20;;;;;;;;;;5064543;28;20429;-81
2022/11/08 10:29:03;;;;;;;4.90;2.22;;;;;;;;;;5069056;28;20427;-82
2022/11/08 10:31:31;;;;;;;4.23;2.27;;;;;;;;;;5064207;28;20429;-82
2022/11/08 10:34:01;;;;;;;4.32;2.17;;;;;;;;;;5065113;28;20452;-81
2022/11/08 10:36:32;;;;;;;5.05;2.17;;;;;;;;;;5065226;28;20425;-81
2022/11/08 10:39:01;;;;;;;5.50;2.40;;;;;;;;;;5067531;28;20415;-82
2022/11/08 10:41:31;;;;;;;5.83;2.33;;;;;;;;;;5065475;28;20428;-82
2022/11/08 10:44:01;;;;;;;3.85;2.13;;;;;;;;;;5062698;28;20783;-82
2022/11/08 10:46:34;;;;;;;6.20;2.63;;;;;;;;;;5065598;28;20429;-80
2022/11/08 10:49:08;;;;;;;4.10;2.20;;;;;;;;;;5066983;28;20421;-80
2022/11/08 10:51:35;;;;;;;3.30;2.47;;;;;;;;;;5064051;28;20425;-79
2022/11/08 10:54:01;;;;;;;4.65;2.35;;;;;;;;;;5065994;28;20429;-79
2022/11/08 10:56:28;;;;;;;4.57;2.70;;;;;;;;;;5065000;28;20425;-81
2022/11/08 10:58:54;;;;;;;5.20;2.25;;;;;;;;;;5066283;28;20908;-80
2022/11/08 11:01:22;;;;;;;2.15;1.85;;;;;;;;;;5066942;28;20449;-80
2022/11/08 11:03:49;;;;;;;5.37;2.70;;;;;;;;;;5063588;28;20491;-80
2022/11/08 11:06:26;;;;;;;4.22;2.63;;;;;;;;;;5061630;28;20429;-80
2022/11/08 11:08:54;;;;;;;4.30;2.30;;;;;;;;;;5069132;28;20415;-80
2022/11/08 11:11:25;;;;;;;5.50;2.60;;;;;;;;;;5065920;28;20429;-80
2022/11/08 11:14:05;;;;;;;5.10;2.40;;;;;;;;;;5063387;28;20903;-80
2022/11/08 11:16:31;;;;;;;5.78;2.20;;;;;;;;;;5061756;28;20511;-80
2022/11/08 11:18:59;;;;;;;2.50;2.30;;;;;;;;;;5060354;28;20436;-80
2022/11/08 11:21:35;;;;;;;3.25;2.08;;;;;;;;;;5069551;28;20415;-80
2022/11/08 11:24:06;;;;;;;4.70;2.50;;;;;;;;;;5071187;28;20409;-80
2022/11/08 11:26:34;;;;;;;3.50;2.22;;;;;;;;;;5062323;28;20425;-80
2022/11/08 11:29:18;;;;;;;2.97;2.10;;;;;;;;;;5067470;28;20496;-80
2022/11/08 11:31:48;;;;;;;4.75;2.42;;;;;;;;;;5064971;28;20487;-80
2022/11/08 11:34:29;;;;;;;4.65;2.08;;;;;;;;;;5062320;28;20518;-80
2022/11/08 11:37:00;;;;;;;5.10;2.25;;;;;;;;;;5060150;28;20421;-80
2022/11/08 11:39:32;;;;;;;4.40;2.20;;;;;;;;;;5061240;28;20495;-80
2022/11/08 11:42:02;;;;;;;4.35;2.20;;;;;;;;;;5067559;28;20432;-82
2022/11/08 11:44:34;;;;;;;3.60;2.05;;;;;;;;;;5062468;28;20405;-82
2022/11/08 11:47:02;;;;;;;3.22;2.00;;;;;;;;;;5069276;28;20430;-80
2022/11/08 11:49:29;;;;;;;4.25;2.22;;;;;;;;;;5060696;28;20787;-81
2022/11/08 11:51:56;;;;;;;3.15;1.83;;;;;;;;;;5065971;28;20427;-80
2022/11/08 11:54:26;;;;;;;3.63;2.05;;;;;;;;;;5065809;28;20432;-80
2022/11/08 11:56:54;;;;;;;4.38;2.03;;;;;;;;;;5064956;28;20797;-80
2022/11/08 11:59:38;;;;;;;2.00;1.80;;;;;;;;;;5057478;28;20424;-80
2022/11/08 12:02:30;;;;;;;4.05;2.25;;;;;;;;;;5066816;28;20461;-81
2022/11/08 12:05:09;;;;;;;4.40;2.47;;;;;;;;;;5066001;28;21008;-80
2022/11/08 12:07:40;;;;;;;4.20;2.20;;;;;;;;;;5065234;28;20453;-81
2022/11/08 12:10:15;;;;;;;3.67;1.88;;;;;;;;;;5067381;28;20477;-79
2022/11/08 12:12:46;;;;;;;4.40;2.00;;;;;;;;;;5065371;28;20508;-81
2022/11/08 12:15:21;;;;;;;3.20;2.10;;;;;;;;;;5065588;28;20429;-80
2022/11/08 12:18:02;;;;;;;3.83;2.10;;;;;;;;;;5066975;28;20421;-82
2022/11/08 12:20:41;;;;;;;3.92;2.22;;;;;;;;;;5069091;28;20414;-82
2022/11/08 12:23:17;;;;;;;4.18;1.92;;;;;;;;;;5069217;28;20428;-82
2022/11/08 12:25:51;;;;;;;3.95;2.00;;;;;;;;;;5067902;28;20423;-80
2022/11/08 12:28:27;;;;;;;3.55;1.80;;;;;;;;;;5066019;28;20425;-80
2022/11/08 12:30:56;;;;;;;3.58;1.80;;;;;;;;;;5070697;28;20433;-79
2022/11/08 12:33:29;;;;;;;4.00;1.70;;;;;;;;;;5069759;28;20447;-80
2022/11/08 12:36:20;;;;;;;3.92;2.20;;;;;;;;;;5068157;28;20411;-81
2022/11/08 12:38:54;;;;;;;4.38;2.10;;;;;;;;;;5067579;28;20436;-80
2022/11/08 12:41:24;;;;;;;4.32;2.00;;;;;;;;;;5068899;28;20921;-80
2022/11/08 12:44:07;;;;;;;3.05;1.70;;;;;;;;;;5069554;28;20434;-80
2022/11/08 12:46:39;;;;;;;4.68;2.20;;;;;;;;;;5061450;28;20425;-82
2022/11/08 12:49:13;;;;;;;3.13;1.60;;;;;;;;;;5070223;28;20418;-80
2022/11/08 12:51:44;;;;;;;5.38;2.00;;;;;;;;;;5067859;28;20413;-80
2022/11/08 12:54:19;;;;;;;3.53;2.20;;;;;;;;;;5070299;28;20443;-81
2022/11/08 12:56:48;;;;;;;4.20;2.20;;;;;;;;;;5065827;28;20923;-81
2022/11/08 12:59:18;;;;;;;3.90;1.80;;;;;;;;;;5068350;28;20457;-81
2022/11/08 13:01:45;;;;;;;3.60;1.80;;;;;;;;;;5067964;28;20401;-80
2022/11/08 13:04:21;;;;;;;3.20;2.00;;;;;;;;;;5066222;28;20491;-80
2022/11/08 13:06:50;;;;;;;2.92;1.80;;;;;;;;;;5070452;28;20412;-81
2022/11/08 13:09:21;;;;;;;2.70;1.60;;;;;;;;;;5070924;28;20899;-80
2022/11/08 13:11:52;;;;;;;3.30;2.08;;;;;;;;;;5065025;28;20429;-80
2022/11/08 13:14:19;;;;;;;2.60;1.70;;;;;;;;;;5066198;28;20405;-80
2022/11/08 13:17:06;;;;;;;4.13;2.00;;;;;;;;;;5066746;28;20453;-80
2022/11/08 13:19:52;;;;;;;5.40;2.03;;;;;;;;;;5067153;28;20425;-80
2022/11/08 13:22:39;;;;;;;4.85;1.90;;;;;;;;;;5066213;28;20502;-80
2022/11/08 13:25:07;;;;;;;5.70;2.00;;;;;;;;;;5066534;28;20957;-80
2022/11/08 13:27:35;;;;;;;2.95;1.98;;;;;;;;;;5068144;28;20869;-82
2022/11/08 13:30:28;;;;;;;4.18;2.00;;;;;;;;;;5073856;28;21042;-82
2022/11/08 13:32:59;;;;;;;3.42;1.75;;;;;;;;;;5062685;28;20420;-82
2022/11/08 13:35:30;;;;;;;2.72;1.52;;;;;;;;;;5068219;28;20420;-82
2022/11/08 13:38:03;;;;;;;3.20;2.10;;;;;;;;;;5067696;28;20417;-82
2022/11/08 13:40:39;;;;;;;3.87;2.10;;;;;;;;;;5068379;28;20417;-82
2022/11/08 13:43:25;;;;;;;3.00;1.98;;;;;;;;;;5067702;28;20882;-82
2022/11/08 13:45:52;;;;;;;10.57;2.10;;;;;;;;;;5067520;28;20421;-82
2022/11/08 13:48:36;;;;;;;3.80;1.70;;;;;;;;;;5067280;28;20425;-82
2022/11/08 13:51:23;;;;;;;4.67;1.93;;;;;;;;;;5064742;28;20433;-80
2022/11/08 13:53:51;;;;;;;2.92;1.58;;;;;;;;;;5065966;28;20838;-80
2022/11/08 13:56:23;;;;;;;3.05;1.60;;;;;;;;;;5066075;28;20909;-80
2022/11/08 13:58:51;;;;;;;7.45;1.80;;;;;;;;;;5068525;28;20454;-80
2022/11/08 14:01:48;;;;;;;3.72;1.85;;;;;;;;;;5068818;28;20425;-82
2022/11/08 14:04:24;;;;;;;4.80;1.80;;;;;;;;;;4988822;28;21103;-82
2022/11/08 14:06:55;;;;;;;3.10;2.00;;;;;;;;;;5054522;28;20429;-82
2022/11/08 14:09:28;;;;;;;4.65;2.00;;;;;;;;;;5065904;28;20413;-82
2022/11/08 14:11:59;;;;;;;2.30;1.70;;;;;;;;;;5064793;28;20417;-81
2022/11/08 14:14:40;;;;;;;4.32;1.90;;;;;;;;;;5061977;28;20437;-81
2022/11/08 14:17:24;;;;;;;4.07;2.00;;;;;;;;;;5062239;28;20405;-81
2022/11/08 14:19:51;;;;;;;4.80;2.00;;;;;;;;;;5064371;28;20778;-81
2022/11/08 14:22:20;;;;;;;3.50;2.00;;;;;;;;;;5067611;28;20423;-81
2022/11/08 14:24:47;;;;;;;5.23;2.00;;;;;;;;;;5068964;28;20413;-81
2022/11/08 14:27:14;;;;;;;5.05;1.92;;;;;;;;;;5067137;28;20480;-81
2022/11/08 14:29:41;;;;;;;2.42;1.60;;;;;;;;;;5062675;28;20418;-81
2022/11/08 14:32:16;;;;;;;4.32;2.28;;;;;;;;;;5064219;28;20411;-81
2022/11/08 14:34:45;;;;;;;3.30;1.92;;;;;;;;;;5065806;28;20400;-81
2022/11/08 14:37:15;;;;;;;3.55;1.90;;;;;;;;;;5065176;28;20429;-81
2022/11/08 14:39:45;;;;;;;2.60;1.70;;;;;;;;;;5058986;28;20415;-80
2022/11/08 14:42:18;;;;;;;4.57;2.35;;;;;;;;;;5066884;28;20475;-80
2022/11/08 14:44:45;;;;;;;4.70;1.70;;;;;;;;;;5063820;28;20584;-80
2022/11/08 14:47:22;;;;;;;2.95;1.88;;;;;;;;;;5065769;28;20425;-80
2022/11/08 14:49:50;;;;;;;2.53;1.83;;;;;;;;;;5066659;28;20434;-80
2022/11/08 14:52:21;;;;;;;2.28;1.50;;;;;;;;;;5066521;28;20416;-80
2022/11/08 14:54:48;;;;;;;3.38;2.10;;;;;;;;;;5066210;28;20816;-80
2022/11/08 14:57:31;;;;;;;6.30;2.15;;;;;;;;;;5069686;28;20428;-80
2022/11/08 14:59:58;;;;;;;2.70;1.90;;;;;;;;;;5068209;28;20419;-80
2022/11/08 15:02:24;;;;;;;3.73;1.97;;;;;;;;;;5065121;28;20414;-82
2022/11/08 15:04:53;;;;;;;4.13;1.90;;;;;;;;;;5067830;28;20921;-81
2022/11/08 15:07:21;;;;;;;3.37;2.10;;;;;;;;;;5064540;28;20421;-82
2022/11/08 15:09:48;;;;;;;1.80;1.60;;;;;;;;;;5064893;28;20419;-82
2022/11/08 15:12:16;;;;;;;3.00;2.20;;;;;;;;;;5067744;28;20424;-82